CYPL

Pickle Lake Airport

Pickle Lake, Ontario, Canada
METAR CYPL 230200Z VRB06KT 15SM -SHSN BKN014 OVC022 00/M02 A3007 RMK SF6SC2 LAST STFD OBS/NEXT 231100 UTC SLP205
Observed Flight Rules
Oct-23 @ 02:00 UTC (8 hours ago) Marginal Visual Flight Rules
Wind Visibility Clouds Conditions
Variable at 6 knots 15 miles
  • Broken at 1,400' AGL
  • Overcast at 2,200' AGL
  • Light Snow
Temperatures Readings
Current 0°C / 32°F
Dewpoint -2°C / 28°F
Humidity 87%
Altimeter 30.07" Hg
Pressure 1020.5 hPa
Elevation 373
METAR CYPL 230200Z VRB06KT 15SM -SHSN BKN014 OVC022 00/M02 A3007 RMK SF6SC2 LAST STFD OBS/NEXT 231100 UTC SLP205
Observed Flight Rules
Oct-23 @ 02:00 UTC
(8 hours ago)
MVFR
Wind Visibility
Variable at 6 knots 15 miles
Clouds
  • Broken at 1,400' AGL
  • Overcast at 2,200' AGL
Conditions
  • Light Snow
Temperature Dewpoint
0°C / 32°F -2°C / 28°F
Humidity Altimeter Pressure
87% 30.07" Hg 1020.5 hPa